createdAt,value
2022-12-27T00:01:43.608Z,2.77
2022-12-27T00:04:11.760Z,3.47
2022-12-27T00:06:42.018Z,3.47
2022-12-27T00:09:10.353Z,2.93
2022-12-27T00:11:39.690Z,2.93
2022-12-27T00:14:08.763Z,3.50
2022-12-27T00:16:36.869Z,3.23
2022-12-27T00:19:05.154Z,3.03
2022-12-27T00:21:34.991Z,3.50
2022-12-27T00:24:04.841Z,3.10
2022-12-27T00:26:34.540Z,3.10
2022-12-27T00:29:03.232Z,2.47
2022-12-27T00:31:33.217Z,3.00
2022-12-27T00:34:04.125Z,3.00
2022-12-27T00:36:33.248Z,3.57
2022-12-27T00:39:02.569Z,3.13
2022-12-27T00:41:32.693Z,3.07
2022-12-27T00:44:00.753Z,3.03
2022-12-27T00:46:28.829Z,3.50
2022-12-27T00:48:58.656Z,3.17
2022-12-27T00:51:27.188Z,3.40
2022-12-27T00:53:55.981Z,3.60
2022-12-27T00:56:27.704Z,2.70
2022-12-27T00:58:59.208Z,3.10
2022-12-27T01:01:30.053Z,3.10
2022-12-27T01:03:59.324Z,3.07
2022-12-27T01:06:29.587Z,3.20
2022-12-27T01:08:58.186Z,3.23
2022-12-27T01:11:28.376Z,3.90
2022-12-27T01:13:58.999Z,3.30
2022-12-27T01:16:29.360Z,3.40
2022-12-27T01:18:57.780Z,3.73
2022-12-27T01:21:27.800Z,3.73
2022-12-27T01:23:56.324Z,3.80
2022-12-27T01:26:25.225Z,4.00
2022-12-27T01:28:54.294Z,3.10
2022-12-27T01:31:25.812Z,3.30
2022-12-27T01:33:56.866Z,3.80
2022-12-27T01:36:27.004Z,3.07
2022-12-27T01:38:55.736Z,3.67
2022-12-27T01:41:43.514Z,3.33
2022-12-27T01:44:51.175Z,4.43
2022-12-27T01:47:27.876Z,4.17
2022-12-27T01:50:04.325Z,3.73
2022-12-27T01:52:36.555Z,3.50
2022-12-27T01:55:11.948Z,3.83
2022-12-27T01:57:40.253Z,3.70
2022-12-27T02:00:09.907Z,4.00
2022-12-27T02:02:40.960Z,4.37
2022-12-27T02:05:12.429Z,4.03
2022-12-27T02:07:51.817Z,3.60
2022-12-27T02:10:20.545Z,4.50
2022-12-27T02:12:49.018Z,3.97
2022-12-27T02:15:17.173Z,3.73
2022-12-27T02:17:46.703Z,4.37
2022-12-27T02:20:16.987Z,4.73
2022-12-27T02:23:39.682Z,5.33
2022-12-27T02:26:34.958Z,4.60
2022-12-27T02:29:35.105Z,4.07
2022-12-27T02:32:08.935Z,4.70
2022-12-27T02:34:43.849Z,4.80
2022-12-27T02:37:14.498Z,4.83
2022-12-27T02:39:47.595Z,5.07
2022-12-27T02:42:35.469Z,4.70
2022-12-27T02:45:28.131Z,5.30
2022-12-27T02:48:13.547Z,6.03
2022-12-27T02:51:10.964Z,5.50
2022-12-27T02:53:50.453Z,5.53
2022-12-27T02:56:49.071Z,5.70
2022-12-27T02:59:31.203Z,5.70
2022-12-27T03:02:33.208Z,5.83
2022-12-27T03:05:14.482Z,5.60
2022-12-27T03:07:53.854Z,6.10
2022-12-27T03:10:50.033Z,6.57
2022-12-27T03:13:41.287Z,5.63
2022-12-27T03:16:24.170Z,5.43
2022-12-27T03:19:04.120Z,5.70
2022-12-27T03:21:52.681Z,5.53
2022-12-27T03:24:42.058Z,6.10
2022-12-27T03:27:18.111Z,6.23
2022-12-27T03:30:10.873Z,5.50
2022-12-27T03:33:04.127Z,6.33
2022-12-27T03:35:40.659Z,6.50
2022-12-27T03:38:12.466Z,6.20
2022-12-27T03:41:01.575Z,6.63
2022-12-27T03:43:30.963Z,6.67
2022-12-27T03:46:23.407Z,7.10
2022-12-27T03:49:00.527Z,7.57
2022-12-27T03:51:36.178Z,7.00
2022-12-27T03:54:09.966Z,7.20
2022-12-27T03:56:39.594Z,6.77
2022-12-27T03:59:08.892Z,7.27
2022-12-27T04:01:37.169Z,6.83
2022-12-27T04:04:05.579Z,6.97
2022-12-27T04:06:35.082Z,7.00
2022-12-27T04:09:20.706Z,7.30
2022-12-27T04:12:06.176Z,7.57
2022-12-27T04:14:51.555Z,7.47
2022-12-27T04:17:36.895Z,6.00
2022-12-27T04:20:22.826Z,6.70
2022-12-27T04:23:09.572Z,6.77
2022-12-27T04:25:55.119Z,8.07
2022-12-27T04:28:40.911Z,7.30
2022-12-27T04:31:26.735Z,6.67
2022-12-27T04:34:12.112Z,8.20
2022-12-27T04:36:40.249Z,7.27
2022-12-27T04:39:09.731Z,8.27
2022-12-27T04:41:55.193Z,8.00
2022-12-27T04:44:40.961Z,7.83
2022-12-27T04:47:31.507Z,8.53
2022-12-27T04:50:16.826Z,8.87
2022-12-27T04:53:02.669Z,8.60
2022-12-27T04:55:32.138Z,9.33
2022-12-27T04:58:00.561Z,10.00
2022-12-27T05:00:48.718Z,7.97
2022-12-27T05:03:19.266Z,8.37
2022-12-27T05:05:49.778Z,7.70
2022-12-27T05:08:37.462Z,7.50
2022-12-27T05:11:24.771Z,8.73
2022-12-27T05:14:01.553Z,8.57
2022-12-27T05:16:31.396Z,7.70
2022-12-27T05:18:59.812Z,8.40
2022-12-27T05:21:28.242Z,8.83
2022-12-27T05:24:13.957Z,8.70
2022-12-27T05:26:46.464Z,8.80
2022-12-27T05:29:14.518Z,10.60
2022-12-27T05:31:42.897Z,9.97
2022-12-27T05:34:11.128Z,8.63
2022-12-27T05:36:39.218Z,8.60
2022-12-27T05:39:07.446Z,9.30
2022-12-27T05:41:35.566Z,8.97
2022-12-27T05:44:07.705Z,9.30
2022-12-27T05:46:36.143Z,8.50
2022-12-27T05:49:04.312Z,8.30
2022-12-27T05:51:32.472Z,9.07
2022-12-27T05:54:00.589Z,8.30
2022-12-27T05:56:28.688Z,10.00
2022-12-27T05:58:56.830Z,11.00
2022-12-27T06:01:26.379Z,9.87
2022-12-27T06:03:54.401Z,9.80
2022-12-27T06:06:22.459Z,8.80
2022-12-27T06:08:50.508Z,9.20
2022-12-27T06:11:20.451Z,8.03
2022-12-27T06:13:52.050Z,8.20
2022-12-27T06:16:21.020Z,9.33
2022-12-27T06:18:51.349Z,6.80
2022-12-27T06:21:21.586Z,6.60
2022-12-27T06:23:50.544Z,5.97
2022-12-27T06:26:21.569Z,5.63
2022-12-27T06:28:50.079Z,5.23
2022-12-27T06:31:19.364Z,5.63
2022-12-27T06:33:48.328Z,5.20
2022-12-27T06:36:21.137Z,5.23
2022-12-27T06:38:49.974Z,5.10
2022-12-27T06:41:22.709Z,5.50
2022-12-27T06:43:56.657Z,4.70
2022-12-27T06:46:25.444Z,4.70
2022-12-27T06:48:54.128Z,5.70
2022-12-27T06:51:23.741Z,5.10
2022-12-27T06:53:52.006Z,4.70
2022-12-27T06:56:22.693Z,5.60
2022-12-27T06:58:52.201Z,5.57
2022-12-27T07:01:22.652Z,5.90
2022-12-27T07:03:51.789Z,5.17
2022-12-27T07:06:21.250Z,6.03
2022-12-27T07:08:52.166Z,6.13
2022-12-27T07:11:21.605Z,5.87
2022-12-27T07:13:51.013Z,5.63
2022-12-27T07:16:22.826Z,5.50
2022-12-27T07:18:51.174Z,6.03
2022-12-27T07:21:21.791Z,5.13
2022-12-27T07:23:52.019Z,5.30
2022-12-27T07:26:23.171Z,6.47
2022-12-27T07:28:54.767Z,5.30
2022-12-27T07:31:26.416Z,6.13
2022-12-27T07:33:54.632Z,5.60
2022-12-27T07:36:25.339Z,6.10
2022-12-27T07:38:54.828Z,6.67
2022-12-27T07:41:22.967Z,6.57
2022-12-27T07:43:51.068Z,6.97
2022-12-27T07:46:21.197Z,7.57
2022-12-27T07:48:49.964Z,7.33
2022-12-27T07:51:18.857Z,7.87
2022-12-27T07:53:49.908Z,7.23
2022-12-27T07:56:25.722Z,6.40
2022-12-27T07:58:56.115Z,7.50
2022-12-27T08:01:26.472Z,7.03
2022-12-27T08:03:55.033Z,6.67
2022-12-27T08:06:29.014Z,6.30
2022-12-27T08:08:58.775Z,7.00
2022-12-27T08:11:28.272Z,7.13
2022-12-27T08:13:56.330Z,6.30
2022-12-27T08:16:26.395Z,6.93
2022-12-27T08:18:54.926Z,6.20
2022-12-27T08:21:24.142Z,7.70
2022-12-27T08:23:52.550Z,7.07
2022-12-27T08:26:21.752Z,7.10
2022-12-27T08:28:52.436Z,7.13
2022-12-27T08:31:21.052Z,7.27
2022-12-27T08:33:53.620Z,7.30
2022-12-27T08:39:12.999Z,7.53
2022-12-27T08:41:41.106Z,8.07
2022-12-27T08:44:11.628Z,6.73
2022-12-27T08:46:39.935Z,8.30
2022-12-27T08:49:08.184Z,8.40
2022-12-27T08:51:41.224Z,7.57
2022-12-27T08:54:09.967Z,7.30
2022-12-27T08:56:38.341Z,7.10
2022-12-27T08:59:06.537Z,7.33
2022-12-27T09:01:36.195Z,7.60
2022-12-27T09:04:04.397Z,7.07
2022-12-27T09:06:32.517Z,6.30
2022-12-27T09:09:01.378Z,7.40
2022-12-27T09:11:31.643Z,7.00
2022-12-27T09:14:01.473Z,6.73
2022-12-27T09:16:30.745Z,6.80
2022-12-27T09:19:00.857Z,6.40
2022-12-27T09:21:31.636Z,6.33
2022-12-27T09:24:00.436Z,5.93
2022-12-27T09:26:30.980Z,6.57
2022-12-27T09:28:59.898Z,5.90
2022-12-27T09:31:29.062Z,5.70
2022-12-27T09:33:57.192Z,6.40
2022-12-27T09:36:28.445Z,7.50
2022-12-27T09:38:58.066Z,6.30
2022-12-27T09:44:36.322Z,6.20
2022-12-27T09:47:10.719Z,6.43
2022-12-27T09:49:41.292Z,6.17
2022-12-27T09:52:15.188Z,6.30
2022-12-27T09:54:59.374Z,6.50
2022-12-27T09:57:37.318Z,6.37
2022-12-27T10:00:08.717Z,5.90
2022-12-27T10:02:37.154Z,5.80
2022-12-27T10:05:22.351Z,6.47
2022-12-27T10:08:04.486Z,5.47
2022-12-27T10:10:42.512Z,7.10
2022-12-27T10:13:26.109Z,6.50
2022-12-27T10:16:02.204Z,6.33
2022-12-27T10:18:39.977Z,7.20
2022-12-27T10:21:16.255Z,5.90
2022-12-27T10:23:50.485Z,6.47
2022-12-27T10:26:20.465Z,6.00
2022-12-27T10:28:57.120Z,5.60
2022-12-27T10:31:27.156Z,6.03
2022-12-27T10:33:55.792Z,6.37
2022-12-27T10:36:26.932Z,6.00
2022-12-27T10:38:56.798Z,6.90
2022-12-27T10:41:36.332Z,6.00
2022-12-27T10:44:10.359Z,6.37
2022-12-27T10:46:39.756Z,6.03
2022-12-27T10:49:20.967Z,6.70
2022-12-27T10:51:51.026Z,6.80
2022-12-27T10:54:23.865Z,6.53
2022-12-27T10:56:52.249Z,5.83
2022-12-27T10:59:22.948Z,6.33
2022-12-27T11:02:08.880Z,6.63
2022-12-27T11:04:37.094Z,5.80
2022-12-27T11:07:19.609Z,6.10
2022-12-27T11:09:51.333Z,6.77
2022-12-27T11:12:23.713Z,6.20
2022-12-27T11:14:56.733Z,5.93
2022-12-27T11:17:27.628Z,6.43
2022-12-27T11:19:58.339Z,6.17
2022-12-27T11:22:27.659Z,5.40
2022-12-27T11:25:00.272Z,5.20
2022-12-27T11:27:30.672Z,6.83
2022-12-27T11:30:00.238Z,6.03
2022-12-27T11:32:28.559Z,6.20
2022-12-27T11:34:57.616Z,6.10
2022-12-27T11:37:28.130Z,6.27
2022-12-27T11:40:15.267Z,5.90
2022-12-27T11:42:46.963Z,6.60
2022-12-27T11:45:23.350Z,6.03
2022-12-27T11:47:57.107Z,7.23
2022-12-27T11:50:47.482Z,6.20
2022-12-27T11:53:56.491Z,5.60
2022-12-27T11:56:28.026Z,5.90
2022-12-27T11:59:38.743Z,6.10
2022-12-27T12:02:27.520Z,6.60
2022-12-27T12:05:31.301Z,7.77
2022-12-27T12:08:15.352Z,7.10
2022-12-27T12:10:52.456Z,7.23
2022-12-27T12:13:39.008Z,6.60
2022-12-27T12:16:46.068Z,6.40
2022-12-27T12:19:25.847Z,6.90
2022-12-27T12:22:11.205Z,6.17
2022-12-27T12:25:20.675Z,7.23
2022-12-27T12:28:30.098Z,6.27
2022-12-27T12:31:11.785Z,6.50
2022-12-27T12:34:01.093Z,7.13
2022-12-27T12:36:52.242Z,7.17
2022-12-27T12:39:30.827Z,6.03
2022-12-27T12:42:16.152Z,6.40
2022-12-27T12:45:17.152Z,6.07
2022-12-27T12:48:11.940Z,5.90
2022-12-27T12:51:00.057Z,6.03
2022-12-27T12:53:43.535Z,5.87
2022-12-27T12:56:30.981Z,6.23
2022-12-27T12:59:13.217Z,6.63
2022-12-27T13:01:54.851Z,7.23
2022-12-27T13:04:44.325Z,5.70
2022-12-27T13:07:39.732Z,6.40
2022-12-27T13:10:46.702Z,5.53
2022-12-27T13:13:22.654Z,6.20
2022-12-27T13:16:04.363Z,5.53
2022-12-27T13:18:42.033Z,5.67
2022-12-27T13:21:25.309Z,6.20
2022-12-27T13:24:02.057Z,6.17
2022-12-27T13:26:39.691Z,5.97
2022-12-27T13:29:29.044Z,5.73
2022-12-27T13:32:08.284Z,6.03
2022-12-27T13:34:45.423Z,6.33
2022-12-27T13:37:26.346Z,5.23
2022-12-27T13:40:14.680Z,4.77
2022-12-27T13:43:00.466Z,6.67
2022-12-27T13:45:44.761Z,5.63
2022-12-27T13:48:27.661Z,5.10
2022-12-27T13:51:08.569Z,5.93
2022-12-27T13:54:16.289Z,6.60
2022-12-27T13:56:54.807Z,6.60
2022-12-27T13:59:49.782Z,5.90
2022-12-27T14:02:52.477Z,6.40
2022-12-27T14:06:02.888Z,6.23
2022-12-27T14:08:48.439Z,5.70
2022-12-27T14:11:33.219Z,6.20
2022-12-27T14:14:03.021Z,6.03
2022-12-27T14:16:41.545Z,5.97
2022-12-27T14:19:27.835Z,5.60
2022-12-27T14:22:09.141Z,6.40
2022-12-27T14:25:14.394Z,5.57
2022-12-27T14:28:24.449Z,6.07
2022-12-27T14:31:32.636Z,6.00
2022-12-27T14:34:30.468Z,5.73
2022-12-27T14:37:35.156Z,6.10
2022-12-27T14:40:34.894Z,6.20
2022-12-27T14:43:43.294Z,5.53
2022-12-27T14:46:36.840Z,5.67
2022-12-27T14:49:46.211Z,6.40
2022-12-27T14:52:44.883Z,5.93
2022-12-27T14:55:36.859Z,6.10
2022-12-27T14:58:36.081Z,6.13
2022-12-27T15:01:10.391Z,5.73
2022-12-27T15:04:24.373Z,6.93
2022-12-27T15:07:21.493Z,6.07
2022-12-27T15:09:55.241Z,6.70
2022-12-27T15:12:31.288Z,7.30
2022-12-27T15:15:20.266Z,7.13
2022-12-27T15:18:03.480Z,7.80
2022-12-27T15:20:55.667Z,7.90
2022-12-27T15:23:34.417Z,7.63
2022-12-27T15:26:21.320Z,8.23
2022-12-27T15:29:18.727Z,8.97
2022-12-27T15:31:57.882Z,10.43
2022-12-27T15:34:42.510Z,11.73
2022-12-27T15:37:44.506Z,9.10
2022-12-27T15:40:29.862Z,9.80
2022-12-27T15:43:02.865Z,9.53
2022-12-27T15:45:45.443Z,10.80
2022-12-27T15:48:53.473Z,12.30
2022-12-27T15:51:32.418Z,10.30
2022-12-27T15:54:41.359Z,11.10
2022-12-27T15:57:33.227Z,11.10
2022-12-27T16:00:14.891Z,12.23
2022-12-27T16:02:53.638Z,12.17
2022-12-27T16:05:47.166Z,12.90
2022-12-27T16:08:42.337Z,12.30
2022-12-27T16:11:13.019Z,12.13
2022-12-27T16:13:48.297Z,12.73
2022-12-27T16:16:51.208Z,13.83
2022-12-27T16:19:40.512Z,13.10
2022-12-27T16:22:28.011Z,13.80
2022-12-27T16:24:56.931Z,13.93
2022-12-27T16:27:31.619Z,14.67
2022-12-27T16:30:01.387Z,14.23
2022-12-27T16:32:29.835Z,15.17
2022-12-27T16:35:14.013Z,14.87
2022-12-27T16:37:45.929Z,16.70
2022-12-27T16:40:35.275Z,16.13
2022-12-27T16:43:28.535Z,14.50
2022-12-27T16:46:24.033Z,15.50
2022-12-27T16:49:23.229Z,15.57
2022-12-27T16:52:04.007Z,14.53
2022-12-27T16:54:46.905Z,15.70
2022-12-27T16:57:39.713Z,15.13
2022-12-27T17:00:36.301Z,14.63
2022-12-27T17:03:32.499Z,13.47
2022-12-27T17:09:41.401Z,15.83
2022-12-27T17:12:26.425Z,15.30
2022-12-27T17:15:03.491Z,14.90
2022-12-27T17:17:32.673Z,15.90
2022-12-27T17:20:05.540Z,15.63
2022-12-27T17:22:35.888Z,15.20
2022-12-27T17:25:14.696Z,15.60
2022-12-27T17:27:57.763Z,15.57
2022-12-27T17:30:45.905Z,15.67
2022-12-27T17:33:36.570Z,15.00
2022-12-27T17:36:20.697Z,15.60
2022-12-27T17:39:04.317Z,15.83
2022-12-27T17:42:02.655Z,16.50
2022-12-27T17:44:45.186Z,15.60
2022-12-27T17:47:41.471Z,15.80
2022-12-27T17:50:16.011Z,17.87
2022-12-27T17:53:19.365Z,16.23
2022-12-27T17:56:19.289Z,16.17
2022-12-27T17:58:48.780Z,16.00
2022-12-27T18:01:16.989Z,17.97
2022-12-27T18:03:48.300Z,16.27
2022-12-27T18:06:20.769Z,16.00
2022-12-27T18:08:50.304Z,16.17
2022-12-27T18:11:23.445Z,16.40
2022-12-27T18:13:58.962Z,15.80
2022-12-27T18:16:36.535Z,17.80
2022-12-27T18:19:05.322Z,15.67
2022-12-27T18:21:33.684Z,16.43
2022-12-27T18:24:01.901Z,15.33
2022-12-27T18:26:37.151Z,15.70
2022-12-27T18:29:11.389Z,15.43
2022-12-27T18:31:48.672Z,14.00
2022-12-27T18:34:25.360Z,15.00
2022-12-27T18:37:00.113Z,14.63
2022-12-27T18:39:31.743Z,14.37
2022-12-27T18:42:03.338Z,13.70
2022-12-27T18:44:40.793Z,14.07
2022-12-27T18:47:19.654Z,13.70
2022-12-27T18:49:52.656Z,13.20
2022-12-27T18:52:26.120Z,13.90
2022-12-27T18:54:54.863Z,13.37
2022-12-27T18:57:33.322Z,14.17
2022-12-27T19:00:13.332Z,14.00
2022-12-27T19:02:42.477Z,12.93
2022-12-27T19:05:16.428Z,14.10
2022-12-27T19:07:47.325Z,13.10
2022-12-27T19:10:18.767Z,16.40
2022-12-27T19:12:47.596Z,13.87
2022-12-27T19:15:19.800Z,12.27
2022-12-27T19:17:50.535Z,11.57
2022-12-27T19:20:26.584Z,12.20
2022-12-27T19:22:57.346Z,13.80
2022-12-27T19:25:27.405Z,13.67
2022-12-27T19:28:04.855Z,12.07
2022-12-27T19:30:38.089Z,13.47
2022-12-27T19:33:10.068Z,17.87
2022-12-27T19:35:38.286Z,12.53
2022-12-27T19:38:06.423Z,14.67
2022-12-27T19:40:34.614Z,12.37
2022-12-27T19:43:02.708Z,13.23
2022-12-27T19:45:30.854Z,12.73
2022-12-27T19:48:27.688Z,12.00
2022-12-27T19:50:56.488Z,13.80
2022-12-27T19:53:30.693Z,13.33
2022-12-27T19:55:58.970Z,12.90
2022-12-27T19:58:29.430Z,15.07
2022-12-27T20:00:58.097Z,12.60
2022-12-27T20:03:27.775Z,13.30
2022-12-27T20:06:13.999Z,12.37
2022-12-27T20:08:49.514Z,12.97
2022-12-27T20:11:19.987Z,13.30
2022-12-27T20:13:48.634Z,14.03
2022-12-27T20:16:19.550Z,14.37
2022-12-27T20:18:49.339Z,12.40
2022-12-27T20:21:19.778Z,13.30
2022-12-27T20:23:48.553Z,14.17
2022-12-27T20:26:21.365Z,13.03
2022-12-27T20:28:50.061Z,13.47
2022-12-27T20:31:21.430Z,14.37
2022-12-27T20:33:53.883Z,14.03
2022-12-27T20:36:22.252Z,15.93
2022-12-27T20:38:50.366Z,14.80
2022-12-27T20:41:21.238Z,14.13
2022-12-27T20:43:49.381Z,15.60
2022-12-27T20:46:19.042Z,14.93
2022-12-27T20:48:48.270Z,14.30
2022-12-27T20:51:20.576Z,15.50
2022-12-27T20:53:54.508Z,14.17
2022-12-27T20:56:22.649Z,15.20
2022-12-27T20:58:51.009Z,13.73
2022-12-27T21:01:21.174Z,13.67
2022-12-27T21:03:50.125Z,14.30
2022-12-27T21:06:22.054Z,13.13
2022-12-27T21:08:56.853Z,14.47
2022-12-27T21:11:30.246Z,13.70
2022-12-27T21:13:58.484Z,13.63
2022-12-27T21:16:28.463Z,12.83
2022-12-27T21:18:57.456Z,12.00
2022-12-27T21:21:29.051Z,12.43
2022-12-27T21:23:57.674Z,12.77
2022-12-27T21:26:28.113Z,12.30
2022-12-27T21:28:57.459Z,11.97
2022-12-27T21:31:25.933Z,11.40
2022-12-27T21:33:54.030Z,11.07
2022-12-27T21:36:24.496Z,10.00
2022-12-27T21:38:55.052Z,8.17
2022-12-27T21:41:24.815Z,8.37
2022-12-27T21:43:54.107Z,8.90
2022-12-27T21:46:24.869Z,8.37
2022-12-27T21:48:56.305Z,8.30
2022-12-27T21:51:24.732Z,7.47
2022-12-27T21:53:54.645Z,8.83
2022-12-27T21:56:23.340Z,7.67
2022-12-27T21:58:51.645Z,6.80
2022-12-27T22:01:21.482Z,6.60
2022-12-27T22:03:51.556Z,7.30
2022-12-27T22:06:22.910Z,7.03
2022-12-27T22:08:54.590Z,6.87
2022-12-27T22:11:24.148Z,5.97
2022-12-27T22:13:53.073Z,6.83
2022-12-27T22:16:23.938Z,6.77
2022-12-27T22:18:52.351Z,5.77
2022-12-27T22:21:22.877Z,6.87
2022-12-27T22:23:54.470Z,6.23
2022-12-27T22:26:24.799Z,6.33
2022-12-27T22:28:53.144Z,5.17
2022-12-27T22:31:23.523Z,5.33
2022-12-27T22:33:52.374Z,5.57
2022-12-27T22:36:22.940Z,5.03
2022-12-27T22:38:53.549Z,5.97
2022-12-27T22:41:26.079Z,5.63
2022-12-27T22:43:56.687Z,6.50
2022-12-27T22:46:25.974Z,5.33
2022-12-27T22:48:56.247Z,5.53
2022-12-27T22:51:26.299Z,6.57
2022-12-27T22:53:55.528Z,7.30
2022-12-27T22:56:26.938Z,7.23
2022-12-27T22:58:55.379Z,6.50
2022-12-27T23:01:27.685Z,6.77
2022-12-27T23:03:56.575Z,5.63
2022-12-27T23:06:25.677Z,5.43
2022-12-27T23:08:54.240Z,5.60
2022-12-27T23:11:26.745Z,5.20
2022-12-27T23:13:57.151Z,4.67
2022-12-27T23:16:25.488Z,5.37
2022-12-27T23:18:54.033Z,4.83
2022-12-27T23:21:24.688Z,4.83
2022-12-27T23:23:53.515Z,4.50
2022-12-27T23:26:24.257Z,5.03
2022-12-27T23:28:53.542Z,4.00
2022-12-27T23:31:24.041Z,4.33
2022-12-27T23:33:53.114Z,4.03
2022-12-27T23:36:21.770Z,4.90
2022-12-27T23:38:50.505Z,4.40
2022-12-27T23:41:20.578Z,4.07
2022-12-27T23:43:52.593Z,3.80
2022-12-27T23:46:23.794Z,3.93
2022-12-27T23:48:52.654Z,4.67
2022-12-27T23:51:22.648Z,4.50
2022-12-27T23:53:51.463Z,3.70
2022-12-27T23:56:21.903Z,3.97
2022-12-27T23:58:53.819Z,3.30
